createdAt,value
2022-09-23T00:00:54.000Z,22.7
2022-09-23T00:02:04.000Z,22.7
2022-09-23T00:03:14.000Z,22.7
2022-09-23T00:04:23.000Z,22.8
2022-09-23T00:05:32.000Z,22.7
2022-09-23T00:06:42.000Z,22.8
2022-09-23T00:07:52.000Z,22.7
2022-09-23T00:10:12.000Z,22.7
2022-09-23T00:11:23.000Z,22.7
2022-09-23T00:12:33.000Z,22.7
2022-09-23T00:13:43.000Z,22.7
2022-09-23T00:14:53.000Z,22.7
2022-09-23T00:16:03.000Z,22.7
2022-09-23T00:17:13.000Z,22.7
2022-09-23T00:18:23.000Z,22.7
2022-09-23T00:19:33.000Z,22.7
2022-09-23T00:20:43.000Z,22.7
2022-09-23T00:21:53.000Z,22.7
2022-09-23T00:23:03.000Z,22.7
2022-09-23T00:24:13.000Z,22.7
2022-09-23T00:25:23.000Z,22.7
2022-09-23T00:26:33.000Z,22.7
2022-09-23T00:27:43.000Z,22.7
2022-09-23T00:28:53.000Z,22.7
2022-09-23T00:30:02.000Z,22.7
2022-09-23T00:31:12.000Z,22.7
2022-09-23T00:32:22.000Z,22.7
2022-09-23T00:33:31.000Z,22.7
2022-09-23T00:34:40.000Z,22.7
2022-09-23T00:35:50.000Z,22.7
2022-09-23T00:37:00.000Z,22.7
2022-09-23T00:38:10.000Z,22.7
2022-09-23T00:39:20.000Z,22.7
2022-09-23T00:40:31.000Z,22.7
2022-09-23T00:41:41.000Z,22.7
2022-09-23T00:42:51.000Z,22.7
2022-09-23T00:44:01.000Z,22.7
2022-09-23T00:45:11.000Z,22.7
2022-09-23T00:46:21.000Z,22.7
2022-09-23T00:47:31.000Z,22.7
2022-09-23T00:48:41.000Z,22.7
2022-09-23T00:49:51.000Z,22.7
2022-09-23T00:51:01.000Z,22.7
2022-09-23T00:52:11.000Z,22.7
2022-09-23T00:54:31.000Z,22.6
2022-09-23T00:55:41.000Z,22.7
2022-09-23T00:56:51.000Z,22.6
2022-09-23T00:58:01.000Z,22.6
2022-09-23T00:59:10.958Z,22.7
2022-09-23T01:00:20.000Z,22.7
2022-09-23T01:01:30.000Z,22.6
2022-09-23T01:02:39.000Z,22.6
2022-09-23T01:03:48.000Z,22.6
2022-09-23T01:04:58.000Z,22.6
2022-09-23T01:06:08.000Z,22.6
2022-09-23T01:07:18.000Z,22.6
2022-09-23T01:08:28.000Z,22.6
2022-09-23T01:09:39.000Z,22.6
2022-09-23T01:10:49.000Z,22.6
2022-09-23T01:11:59.000Z,22.6
2022-09-23T01:13:09.000Z,22.6
2022-09-23T01:14:19.000Z,22.6
2022-09-23T01:15:29.000Z,22.6
2022-09-23T01:16:39.000Z,22.6
2022-09-23T01:17:49.000Z,22.6
2022-09-23T01:18:59.000Z,22.6
2022-09-23T01:20:09.000Z,22.6
2022-09-23T01:21:19.000Z,22.6
2022-09-23T01:22:29.000Z,22.6
2022-09-23T01:23:39.000Z,22.6
2022-09-23T01:24:49.000Z,22.6
2022-09-23T01:25:59.000Z,22.6
2022-09-23T01:27:08.000Z,22.6
2022-09-23T01:28:17.000Z,22.6
2022-09-23T01:29:27.000Z,22.6
2022-09-23T01:30:36.000Z,22.6
2022-09-23T01:31:46.000Z,22.6
2022-09-23T01:32:56.000Z,22.6
2022-09-23T01:34:06.000Z,22.6
2022-09-23T01:35:16.000Z,22.6
2022-09-23T01:36:26.000Z,22.6
2022-09-23T01:37:36.000Z,22.6
2022-09-23T01:38:47.000Z,22.6
2022-09-23T01:41:07.000Z,22.6
2022-09-23T01:42:17.000Z,22.6
2022-09-23T01:43:27.000Z,22.6
2022-09-23T01:44:37.000Z,22.6
2022-09-23T01:48:06.000Z,22.6
2022-09-23T01:49:16.000Z,22.6
2022-09-23T01:50:25.000Z,22.6
2022-09-23T01:52:45.000Z,22.6
2022-09-23T01:53:55.000Z,22.6
2022-09-23T01:55:05.000Z,22.6
2022-09-23T01:56:15.000Z,22.6
2022-09-23T01:57:25.000Z,22.6
2022-09-23T01:58:36.000Z,22.6
2022-09-23T01:59:46.000Z,22.5
2022-09-23T02:00:56.000Z,22.6
2022-09-23T02:02:06.000Z,22.5
2022-09-23T02:03:16.000Z,22.6
2022-09-23T02:04:26.000Z,22.6
2022-09-23T02:06:45.000Z,22.5
2022-09-23T02:07:55.000Z,22.5
2022-09-23T02:09:05.000Z,22.5
2022-09-23T02:10:14.000Z,22.5
2022-09-23T02:11:24.000Z,22.5
2022-09-23T02:13:44.000Z,22.5
2022-09-23T02:14:54.000Z,22.5
2022-09-23T02:16:04.000Z,22.5
2022-09-23T02:17:14.000Z,22.5
2022-09-23T02:18:25.000Z,22.5
2022-09-23T02:19:35.000Z,22.5
2022-09-23T02:20:45.000Z,22.5
2022-09-23T02:21:55.000Z,22.5
2022-09-23T02:23:05.000Z,22.5
2022-09-23T02:24:15.000Z,22.5
2022-09-23T02:25:24.000Z,22.5
2022-09-23T02:26:34.000Z,22.5
2022-09-23T02:27:45.000Z,22.5
2022-09-23T02:28:55.000Z,22.5
2022-09-23T02:30:05.000Z,22.5
2022-09-23T02:31:15.000Z,22.5
2022-09-23T02:32:25.000Z,22.5
2022-09-23T02:33:34.000Z,22.5
2022-09-23T02:34:43.000Z,22.5
2022-09-23T02:35:52.000Z,22.5
2022-09-23T02:37:02.000Z,22.5
2022-09-23T02:38:12.000Z,22.5
2022-09-23T02:39:22.000Z,22.5
2022-09-23T02:40:32.000Z,22.5
2022-09-23T02:41:42.000Z,22.5
2022-09-23T02:42:52.000Z,22.5
2022-09-23T02:44:02.000Z,22.5
2022-09-23T02:45:12.000Z,22.5
2022-09-23T02:46:22.000Z,22.5
2022-09-23T02:47:33.000Z,22.5
2022-09-23T02:48:42.000Z,22.5
2022-09-23T02:49:51.000Z,22.5
2022-09-23T02:51:01.000Z,22.5
2022-09-23T02:52:11.000Z,22.5
2022-09-23T02:53:21.000Z,22.5
2022-09-23T02:54:31.000Z,22.5
2022-09-23T02:55:41.000Z,22.5
2022-09-23T02:56:52.000Z,22.5
2022-09-23T02:58:02.000Z,22.5
2022-09-23T02:59:12.000Z,22.5
2022-09-23T03:00:22.000Z,22.5
2022-09-23T03:01:31.000Z,22.5
2022-09-23T03:02:41.000Z,22.5
2022-09-23T03:03:51.000Z,22.5
2022-09-23T03:05:01.000Z,22.5
2022-09-23T03:06:12.000Z,22.5
2022-09-23T03:07:22.000Z,22.5
2022-09-23T03:08:32.000Z,22.5
2022-09-23T03:09:42.000Z,22.5
2022-09-23T03:10:52.000Z,22.4
2022-09-23T03:12:02.000Z,22.5
2022-09-23T03:13:11.000Z,22.4
2022-09-23T03:14:20.000Z,22.4
2022-09-23T03:15:30.000Z,22.4
2022-09-23T03:16:40.000Z,22.4
2022-09-23T03:17:49.000Z,22.4
2022-09-23T03:18:59.000Z,22.4
2022-09-23T03:20:09.000Z,22.4
2022-09-23T03:21:19.000Z,22.4
2022-09-23T03:22:29.000Z,22.4
2022-09-23T03:23:39.000Z,22.4
2022-09-23T03:24:49.000Z,22.4
2022-09-23T03:26:00.000Z,22.4
2022-09-23T03:27:10.000Z,22.4
2022-09-23T03:28:20.000Z,22.4
2022-09-23T03:29:30.000Z,22.4
2022-09-23T03:30:40.000Z,22.4
2022-09-23T03:31:50.000Z,22.4
2022-09-23T03:32:59.000Z,22.4
2022-09-23T03:34:09.000Z,22.4
2022-09-23T03:35:20.000Z,22.4
2022-09-23T03:36:30.000Z,22.4
2022-09-23T03:37:40.000Z,22.4
2022-09-23T03:38:50.000Z,22.4
2022-09-23T03:40:00.000Z,22.4
2022-09-23T03:41:09.000Z,22.4
2022-09-23T03:42:18.000Z,22.4
2022-09-23T03:43:27.000Z,22.4
2022-09-23T03:44:37.000Z,22.4
2022-09-23T03:45:47.000Z,22.4
2022-09-23T03:46:57.000Z,22.4
2022-09-23T03:48:07.000Z,22.4
2022-09-23T03:49:17.000Z,22.4
2022-09-23T03:50:27.000Z,22.4
2022-09-23T03:51:37.000Z,22.4
2022-09-23T03:52:47.000Z,22.4
2022-09-23T03:53:57.000Z,22.4
2022-09-23T03:55:08.000Z,22.4
2022-09-23T03:56:18.000Z,22.4
2022-09-23T03:57:28.000Z,22.4
2022-09-23T03:58:38.000Z,22.4
2022-09-23T03:59:47.000Z,22.4
2022-09-23T04:00:57.000Z,22.3
2022-09-23T04:02:07.000Z,22.4
2022-09-23T04:03:17.000Z,22.4
2022-09-23T04:04:28.000Z,22.3
2022-09-23T04:05:38.000Z,22.3
2022-09-23T04:06:48.000Z,22.3
2022-09-23T04:07:58.000Z,22.3
2022-09-23T04:09:08.000Z,22.3
2022-09-23T04:10:18.000Z,22.3
2022-09-23T04:11:28.000Z,22.3
2022-09-23T04:12:38.000Z,22.3
2022-09-23T04:13:48.000Z,22.3
2022-09-23T04:14:58.000Z,22.3
2022-09-23T04:16:08.000Z,22.3
2022-09-23T04:17:18.000Z,22.3
2022-09-23T04:18:27.000Z,22.3
2022-09-23T04:19:36.000Z,22.3
2022-09-23T04:20:45.000Z,22.3
2022-09-23T04:21:55.000Z,22.3
2022-09-23T04:23:04.000Z,22.3
2022-09-23T04:24:15.000Z,22.3
2022-09-23T04:25:25.000Z,22.3
2022-09-23T04:26:35.000Z,22.3
2022-09-23T04:27:45.000Z,22.3
2022-09-23T04:28:55.000Z,22.3
2022-09-23T04:30:05.000Z,22.3
2022-09-23T04:31:15.000Z,22.3
2022-09-23T04:32:25.000Z,22.3
2022-09-23T04:33:36.000Z,22.3
2022-09-23T04:34:46.000Z,22.3
2022-09-23T04:35:56.000Z,22.3
2022-09-23T04:37:06.000Z,22.3
2022-09-23T04:38:15.000Z,22.3
2022-09-23T04:39:25.000Z,22.3
2022-09-23T04:40:35.000Z,22.3
2022-09-23T04:41:45.000Z,22.3
2022-09-23T04:42:55.000Z,22.3
2022-09-23T04:44:06.000Z,22.3
2022-09-23T04:45:15.000Z,22.3
2022-09-23T04:46:24.000Z,22.3
2022-09-23T04:47:34.000Z,22.3
2022-09-23T04:48:44.000Z,22.3
2022-09-23T04:49:54.000Z,22.3
2022-09-23T04:51:03.000Z,22.3
2022-09-23T04:52:12.000Z,22.3
2022-09-23T04:53:23.000Z,22.3
2022-09-23T04:54:33.000Z,22.3
2022-09-23T04:55:43.000Z,22.3
2022-09-23T04:56:53.000Z,22.3
2022-09-23T04:58:03.000Z,22.3
2022-09-23T04:59:13.000Z,22.3
2022-09-23T05:00:23.000Z,22.3
2022-09-23T05:01:33.000Z,22.3
2022-09-23T05:02:44.000Z,22.3
2022-09-23T05:03:54.000Z,22.3
2022-09-23T05:05:04.000Z,22.3
2022-09-23T05:06:14.000Z,22.3
2022-09-23T05:07:23.000Z,22.2
2022-09-23T05:08:33.000Z,22.3
2022-09-23T05:09:43.000Z,22.2
2022-09-23T05:10:53.000Z,22.2
2022-09-23T05:12:03.000Z,22.2
2022-09-23T05:13:14.000Z,22.2
2022-09-23T05:14:24.000Z,22.2
2022-09-23T05:15:34.000Z,22.2
2022-09-23T05:16:43.000Z,22.2
2022-09-23T05:17:52.000Z,22.2
2022-09-23T05:19:01.000Z,22.2
2022-09-23T05:20:10.000Z,22.2
2022-09-23T05:21:20.000Z,22.2
2022-09-23T05:22:31.000Z,22.3
2022-09-23T05:23:41.000Z,22.3
2022-09-23T05:24:51.000Z,22.3
2022-09-23T05:26:01.000Z,22.3
2022-09-23T05:27:11.000Z,22.3
2022-09-23T05:28:21.000Z,22.3
2022-09-23T05:29:31.000Z,22.3
2022-09-23T05:30:41.000Z,22.3
2022-09-23T05:31:52.000Z,22.3
2022-09-23T05:33:02.000Z,22.3
2022-09-23T05:34:12.000Z,22.3
2022-09-23T05:35:22.000Z,22.4
2022-09-23T05:36:31.000Z,22.4
2022-09-23T05:37:41.000Z,22.4
2022-09-23T05:38:51.000Z,22.4
2022-09-23T05:40:01.000Z,22.4
2022-09-23T05:41:11.000Z,22.5
2022-09-23T05:42:22.000Z,22.5
2022-09-23T05:43:31.000Z,22.5
2022-09-23T05:44:40.000Z,22.5
2022-09-23T05:45:50.000Z,22.6
2022-09-23T05:47:00.000Z,22.6
2022-09-23T05:48:09.000Z,22.6
2022-09-23T05:49:18.000Z,22.6
2022-09-23T05:50:28.000Z,22.6
2022-09-23T05:51:39.000Z,22.6
2022-09-23T05:52:49.000Z,22.7
2022-09-23T05:53:59.000Z,22.7
2022-09-23T05:55:09.000Z,22.7
2022-09-23T05:56:19.000Z,22.7
2022-09-23T05:57:29.000Z,22.7
2022-09-23T05:58:39.000Z,22.7
2022-09-23T05:59:49.000Z,22.7
2022-09-23T06:02:10.000Z,22.7
2022-09-23T06:03:20.000Z,22.8
2022-09-23T06:04:29.000Z,22.7
2022-09-23T06:05:39.000Z,22.8
2022-09-23T06:06:49.000Z,22.7
2022-09-23T06:07:59.000Z,22.7
2022-09-23T06:09:09.000Z,22.8
2022-09-23T06:10:19.000Z,22.7
2022-09-23T06:11:30.000Z,22.7
2022-09-23T06:12:40.000Z,22.7
2022-09-23T06:13:49.000Z,22.7
2022-09-23T06:14:58.000Z,22.7
2022-09-23T06:16:07.000Z,22.7
2022-09-23T06:17:16.000Z,22.7
2022-09-23T06:18:26.000Z,22.7
2022-09-23T06:19:36.000Z,22.7
2022-09-23T06:20:47.000Z,22.7
2022-09-23T06:21:57.000Z,22.7
2022-09-23T06:23:07.000Z,22.7
2022-09-23T06:24:17.000Z,22.7
2022-09-23T06:25:27.000Z,22.7
2022-09-23T06:26:37.000Z,22.7
2022-09-23T06:27:47.000Z,22.7
2022-09-23T06:28:57.000Z,22.7
2022-09-23T06:30:08.000Z,22.7
2022-09-23T06:31:18.000Z,22.7
2022-09-23T06:32:27.000Z,22.7
2022-09-23T06:33:37.000Z,22.7
2022-09-23T06:34:47.000Z,22.7
2022-09-23T06:35:57.000Z,22.7
2022-09-23T06:37:07.000Z,22.7
2022-09-23T06:38:17.000Z,22.7
2022-09-23T06:39:27.000Z,22.6
2022-09-23T06:40:37.000Z,22.7
2022-09-23T06:41:46.000Z,22.6
2022-09-23T06:42:55.000Z,22.6
2022-09-23T06:44:04.000Z,22.6
2022-09-23T06:45:14.000Z,22.6
2022-09-23T06:46:24.000Z,22.6
2022-09-23T06:47:34.857Z,22.6
2022-09-23T06:48:44.000Z,22.6
2022-09-23T06:49:55.000Z,22.6
2022-09-23T06:51:05.000Z,22.6
2022-09-23T06:52:15.000Z,22.6
2022-09-23T06:53:25.000Z,22.6
2022-09-23T06:54:35.000Z,22.6
2022-09-23T06:55:44.000Z,22.6
2022-09-23T06:56:54.000Z,22.6
2022-09-23T06:58:04.000Z,22.7
2022-09-23T06:59:15.000Z,22.7
2022-09-23T07:00:25.000Z,22.7
2022-09-23T07:01:35.000Z,22.7
2022-09-23T07:02:45.000Z,22.7
2022-09-23T07:03:55.000Z,22.7
2022-09-23T07:05:05.000Z,22.7
2022-09-23T07:06:15.000Z,22.7
2022-09-23T07:07:24.000Z,22.7
2022-09-23T07:08:34.000Z,22.7
2022-09-23T07:09:44.000Z,22.7
2022-09-23T07:10:53.000Z,22.7
2022-09-23T07:12:02.000Z,22.7
2022-09-23T07:13:12.000Z,22.7
2022-09-23T07:14:22.000Z,22.7
2022-09-23T07:15:32.000Z,22.7
2022-09-23T07:16:42.000Z,22.7
2022-09-23T07:17:52.000Z,22.7
2022-09-23T07:19:03.000Z,22.7
2022-09-23T07:20:13.000Z,22.7
2022-09-23T07:21:23.000Z,22.7
2022-09-23T07:22:33.000Z,22.7
2022-09-23T07:23:43.000Z,22.7
2022-09-23T07:24:53.000Z,22.7
2022-09-23T07:26:03.000Z,22.8
2022-09-23T07:27:12.000Z,22.7
2022-09-23T07:28:23.000Z,22.7
2022-09-23T07:29:33.000Z,22.8
2022-09-23T07:30:43.000Z,22.8
2022-09-23T07:31:53.000Z,22.8
2022-09-23T07:33:03.000Z,22.7
2022-09-23T07:34:13.000Z,22.8
2022-09-23T07:35:22.000Z,22.7
2022-09-23T07:36:31.000Z,22.8
2022-09-23T07:37:42.000Z,22.8
2022-09-23T07:38:51.000Z,22.7
2022-09-23T07:40:00.000Z,22.8
2022-09-23T07:41:10.000Z,22.8
2022-09-23T07:42:20.000Z,22.8
2022-09-23T07:43:30.000Z,22.8
2022-09-23T07:44:40.000Z,22.8
2022-09-23T07:45:50.000Z,22.8
2022-09-23T07:47:00.000Z,22.8
2022-09-23T07:48:11.000Z,22.8
2022-09-23T07:49:21.000Z,22.8
2022-09-23T07:50:31.000Z,22.8
2022-09-23T07:51:41.000Z,22.8
2022-09-23T07:52:51.000Z,22.8
2022-09-23T07:54:01.000Z,22.8
2022-09-23T07:55:10.000Z,22.8
2022-09-23T07:58:41.000Z,22.8
2022-09-23T07:59:50.000Z,22.8
2022-09-23T08:00:59.000Z,22.8
2022-09-23T08:02:09.000Z,22.8
2022-09-23T08:03:19.000Z,22.8
2022-09-23T08:04:29.000Z,22.8
2022-09-23T08:05:39.000Z,22.8
2022-09-23T08:06:50.000Z,22.8
2022-09-23T08:08:00.000Z,22.8
2022-09-23T08:09:10.000Z,22.8
2022-09-23T08:10:20.000Z,22.8
2022-09-23T08:11:30.000Z,22.8
2022-09-23T08:12:39.000Z,22.8
2022-09-23T08:13:48.000Z,22.8
2022-09-23T08:14:58.000Z,22.8
2022-09-23T08:16:08.000Z,22.8
2022-09-23T08:17:19.000Z,22.8
2022-09-23T08:18:29.000Z,22.8
2022-09-23T08:19:39.000Z,22.8
2022-09-23T08:20:49.000Z,22.8
2022-09-23T08:21:59.000Z,22.8
2022-09-23T08:23:09.000Z,22.8
2022-09-23T08:24:19.000Z,22.8
2022-09-23T08:25:29.000Z,22.8
2022-09-23T08:26:40.000Z,22.8
2022-09-23T08:27:50.000Z,22.8
2022-09-23T08:28:59.000Z,22.8
2022-09-23T08:30:09.000Z,22.8
2022-09-23T08:31:19.000Z,22.8
2022-09-23T08:32:29.000Z,22.9
2022-09-23T08:33:39.000Z,22.8
2022-09-23T08:34:49.000Z,22.9
2022-09-23T08:35:59.000Z,22.9
2022-09-23T08:37:09.000Z,22.9
2022-09-23T08:38:18.000Z,22.9
2022-09-23T08:39:28.000Z,22.9
2022-09-23T08:40:37.000Z,22.9
2022-09-23T08:41:46.000Z,22.9
2022-09-23T08:42:56.000Z,22.9
2022-09-23T08:44:06.000Z,22.9
2022-09-23T08:45:16.000Z,22.9
2022-09-23T08:46:27.000Z,22.9
2022-09-23T08:47:37.000Z,22.9
2022-09-23T08:48:47.000Z,22.9
2022-09-23T08:49:57.000Z,22.9
2022-09-23T08:51:07.000Z,22.9
2022-09-23T08:52:17.000Z,22.9
2022-09-23T08:53:27.000Z,22.9
2022-09-23T08:54:37.000Z,22.9
2022-09-23T08:55:48.000Z,22.9
2022-09-23T08:56:57.000Z,22.9
2022-09-23T08:59:17.000Z,22.9
2022-09-23T09:00:27.000Z,22.9
2022-09-23T09:01:37.000Z,22.9
2022-09-23T09:02:47.000Z,22.9
2022-09-23T09:03:57.000Z,22.9
2022-09-23T09:05:07.000Z,22.9
2022-09-23T09:06:17.000Z,22.9
2022-09-23T09:08:36.000Z,22.9
2022-09-23T09:09:45.000Z,22.9
2022-09-23T09:10:54.000Z,22.9
2022-09-23T09:12:04.000Z,22.9
2022-09-23T09:13:14.000Z,22.9
2022-09-23T09:14:24.000Z,22.9
2022-09-23T09:15:35.000Z,22.9
2022-09-23T09:16:45.000Z,22.9
2022-09-23T09:17:55.000Z,22.9
2022-09-23T09:19:05.000Z,22.9
2022-09-23T09:20:15.000Z,22.9
2022-09-23T09:21:25.000Z,22.9
2022-09-23T09:22:35.000Z,22.9
2022-09-23T09:23:45.000Z,22.9
2022-09-23T09:24:56.000Z,22.9
2022-09-23T09:26:05.000Z,22.9
2022-09-23T09:27:15.000Z,22.9
2022-09-23T09:29:35.000Z,22.9
2022-09-23T09:30:45.000Z,22.9
2022-09-23T09:31:55.000Z,22.9
2022-09-23T09:33:05.000Z,22.9
2022-09-23T09:34:15.000Z,22.9
2022-09-23T09:35:25.000Z,22.9
2022-09-23T09:36:34.000Z,22.9
2022-09-23T09:37:44.000Z,22.9
2022-09-23T09:38:53.000Z,22.9
2022-09-23T09:40:02.000Z,22.9
2022-09-23T09:41:12.000Z,22.9
2022-09-23T09:43:32.000Z,22.9
2022-09-23T09:44:43.000Z,22.9
2022-09-23T09:45:53.000Z,22.9
2022-09-23T09:47:03.000Z,22.9
2022-09-23T09:48:13.000Z,22.9
2022-09-23T09:49:23.000Z,22.9
2022-09-23T09:50:33.000Z,22.9
2022-09-23T09:51:43.000Z,22.9
2022-09-23T09:52:53.000Z,22.9
2022-09-23T09:55:14.000Z,22.9
2022-09-23T09:56:23.000Z,23
2022-09-23T09:57:32.000Z,22.9
2022-09-23T09:58:42.000Z,22.9
2022-09-23T09:59:52.000Z,22.9
2022-09-23T10:02:12.000Z,22.9
2022-09-23T10:03:22.000Z,23
2022-09-23T10:04:33.000Z,23
2022-09-23T10:05:43.000Z,22.9
2022-09-23T10:06:53.000Z,23
2022-09-23T10:08:03.000Z,23
2022-09-23T10:09:13.000Z,23
2022-09-23T10:10:23.000Z,23
2022-09-23T10:11:33.000Z,23
2022-09-23T10:12:42.000Z,23
2022-09-23T10:13:53.000Z,23
2022-09-23T10:15:03.000Z,23
2022-09-23T10:16:13.000Z,23
2022-09-23T10:17:23.000Z,23
2022-09-23T10:18:33.000Z,23
2022-09-23T10:19:43.000Z,23
2022-09-23T10:20:53.000Z,23
2022-09-23T10:22:02.000Z,23
2022-09-23T10:23:12.000Z,23
2022-09-23T10:25:31.000Z,23
2022-09-23T10:26:40.000Z,23
2022-09-23T10:27:49.000Z,23
2022-09-23T10:30:09.000Z,23
2022-09-23T10:32:30.000Z,23
2022-09-23T10:33:40.000Z,23
2022-09-23T10:34:50.000Z,23
2022-09-23T10:37:10.000Z,23
2022-09-23T10:39:30.000Z,23
2022-09-23T10:40:40.000Z,23
2022-09-23T10:41:50.000Z,23
2022-09-23T10:44:10.000Z,23
2022-09-23T10:45:20.000Z,23
2022-09-23T10:46:29.000Z,23
2022-09-23T10:47:38.000Z,23
2022-09-23T10:48:48.000Z,23
2022-09-23T10:51:07.000Z,23
2022-09-23T10:52:17.000Z,23
2022-09-23T10:53:27.000Z,23
2022-09-23T10:54:37.000Z,23
2022-09-23T10:55:47.000Z,23
2022-09-23T10:56:57.000Z,23
2022-09-23T10:58:07.000Z,23
2022-09-23T11:00:27.000Z,23.1
2022-09-23T11:01:38.000Z,23.1
2022-09-23T11:02:48.000Z,23
2022-09-23T11:05:08.000Z,23.1
2022-09-23T11:07:28.000Z,23.1
2022-09-23T11:08:37.000Z,23.1
2022-09-23T11:09:47.000Z,23.1
2022-09-23T11:12:08.000Z,23.1
2022-09-23T11:13:18.000Z,23.1
2022-09-23T11:14:28.000Z,23.1
2022-09-23T11:15:38.000Z,23.1
2022-09-23T11:16:47.000Z,23.1
2022-09-23T11:17:56.000Z,23.1
2022-09-23T11:19:06.000Z,23.1
2022-09-23T11:20:15.000Z,23.1
2022-09-23T11:21:25.000Z,23.1
2022-09-23T11:22:35.000Z,23.1
2022-09-23T11:23:45.000Z,23.1
2022-09-23T11:24:55.000Z,23.1
2022-09-23T11:26:05.000Z,23.2
2022-09-23T11:28:25.000Z,23.2
2022-09-23T11:29:35.000Z,23.2
2022-09-23T11:30:46.000Z,23.2
2022-09-23T11:33:06.000Z,23.2
2022-09-23T11:34:16.000Z,23.2
2022-09-23T11:35:26.000Z,23.2
2022-09-23T11:36:35.000Z,23.2
2022-09-23T11:37:45.000Z,23.2
2022-09-23T11:38:55.000Z,23.2
2022-09-23T11:40:05.000Z,23.2
2022-09-23T11:41:16.000Z,23.3
2022-09-23T11:42:26.000Z,23.3
2022-09-23T11:43:36.000Z,23.3
2022-09-23T11:44:46.000Z,23.3
2022-09-23T11:45:56.000Z,23.3
2022-09-23T11:47:06.000Z,23.3
2022-09-23T11:48:15.000Z,23.3
2022-09-23T11:49:24.000Z,23.3
2022-09-23T11:50:34.000Z,23.3
2022-09-23T11:51:44.000Z,23.3
2022-09-23T11:52:53.000Z,23.3
2022-09-23T11:54:03.000Z,23.3
2022-09-23T11:55:13.000Z,23.3
2022-09-23T11:56:23.000Z,23.3
2022-09-23T11:57:33.000Z,23.4
2022-09-23T11:58:43.000Z,23.4
2022-09-23T11:59:54.000Z,23.4
2022-09-23T12:02:14.000Z,23.4
2022-09-23T12:03:24.000Z,23.4
2022-09-23T12:04:34.000Z,23.4
2022-09-23T12:05:44.000Z,23.4
2022-09-23T12:06:54.000Z,23.4
2022-09-23T12:09:13.000Z,23.4
2022-09-23T12:10:24.000Z,23.4
2022-09-23T12:11:34.000Z,23.4
2022-09-23T12:12:44.000Z,23.5
2022-09-23T12:13:54.000Z,23.5
2022-09-23T12:15:04.000Z,23.5
2022-09-23T12:16:14.000Z,23.5
2022-09-23T12:17:23.000Z,23.5
2022-09-23T12:18:32.000Z,23.5
2022-09-23T12:19:42.000Z,23.5
2022-09-23T12:20:51.000Z,23.5
2022-09-23T12:22:01.000Z,23.5
2022-09-23T12:23:11.000Z,23.5
2022-09-23T12:24:21.000Z,23.5
2022-09-23T12:25:31.000Z,23.5
2022-09-23T12:26:41.000Z,23.5
2022-09-23T12:27:51.000Z,23.5
2022-09-23T12:29:02.000Z,23.5
2022-09-23T12:30:12.000Z,23.5
2022-09-23T12:31:22.000Z,23.5
2022-09-23T12:32:31.000Z,23.5
2022-09-23T12:33:40.000Z,23.5
2022-09-23T12:34:50.000Z,23.5
2022-09-23T12:36:00.000Z,23.5
2022-09-23T12:37:10.000Z,23.5
2022-09-23T12:38:20.000Z,23.6
2022-09-23T12:39:31.000Z,23.5
2022-09-23T12:40:41.000Z,23.6
2022-09-23T12:41:51.000Z,23.6
2022-09-23T12:43:01.000Z,23.6
2022-09-23T12:44:11.000Z,23.6
2022-09-23T12:45:20.000Z,23.6
2022-09-23T12:46:29.000Z,23.6
2022-09-23T12:47:39.000Z,23.6
2022-09-23T12:48:50.000Z,23.6
2022-09-23T12:50:00.000Z,23.6
2022-09-23T12:51:10.000Z,23.7
2022-09-23T12:52:20.000Z,23.7
2022-09-23T12:53:30.000Z,23.6
2022-09-23T12:54:40.000Z,23.6
2022-09-23T12:55:50.000Z,23.7
2022-09-23T12:57:00.000Z,23.7
2022-09-23T12:58:11.000Z,23.7
2022-09-23T12:59:21.000Z,23.7
2022-09-23T13:00:31.000Z,23.7
2022-09-23T13:01:40.000Z,23.7
2022-09-23T13:02:50.000Z,23.7
2022-09-23T13:04:00.000Z,23.6
2022-09-23T13:05:10.000Z,23.7
2022-09-23T13:06:20.000Z,23.7
2022-09-23T13:07:30.000Z,23.7
2022-09-23T13:08:41.000Z,23.6
2022-09-23T13:09:50.000Z,23.6
2022-09-23T13:10:59.000Z,23.6
2022-09-23T13:12:08.000Z,23.6
2022-09-23T13:13:17.000Z,23.6
2022-09-23T13:14:27.000Z,23.6
2022-09-23T13:15:37.000Z,23.6
2022-09-23T13:16:47.000Z,23.6
2022-09-23T13:17:58.000Z,23.6
2022-09-23T13:19:08.000Z,23.6
2022-09-23T13:20:18.000Z,23.5
2022-09-23T13:21:28.000Z,23.6
2022-09-23T13:22:38.000Z,23.5
2022-09-23T13:23:48.000Z,23.5
2022-09-23T13:24:58.000Z,23.5
2022-09-23T13:26:08.000Z,23.5
2022-09-23T13:27:19.000Z,23.5
2022-09-23T13:28:28.000Z,23.5
2022-09-23T13:29:38.000Z,23.5
2022-09-23T13:30:48.000Z,23.5
2022-09-23T13:31:58.000Z,23.5
2022-09-23T13:33:08.000Z,23.5
2022-09-23T13:34:18.000Z,23.5
2022-09-23T13:35:28.000Z,23.5
2022-09-23T13:36:37.000Z,23.5
2022-09-23T13:37:47.000Z,23.5
2022-09-23T13:38:57.000Z,23.5
2022-09-23T13:40:06.000Z,23.5
2022-09-23T13:41:15.000Z,23.4
2022-09-23T13:42:25.000Z,23.4
2022-09-23T13:43:35.000Z,23.4
2022-09-23T13:44:45.000Z,23.4
2022-09-23T13:45:55.000Z,23.4
2022-09-23T13:47:06.000Z,23.4
2022-09-23T13:48:16.000Z,23.4
2022-09-23T13:49:26.000Z,23.4
2022-09-23T13:50:36.000Z,23.4
2022-09-23T13:51:46.000Z,23.4
2022-09-23T13:52:56.000Z,23.4
2022-09-23T13:54:06.000Z,23.4
2022-09-23T13:55:16.000Z,23.4
2022-09-23T13:56:26.000Z,23.4
2022-09-23T13:58:46.000Z,23.4
2022-09-23T13:59:56.000Z,23.4
2022-09-23T14:01:06.000Z,23.4
2022-09-23T14:02:16.000Z,23.4
2022-09-23T14:03:26.000Z,23.4
2022-09-23T14:04:36.000Z,23.4
2022-09-23T14:05:45.000Z,23.4
2022-09-23T14:06:55.000Z,23.4
2022-09-23T14:08:05.000Z,23.4
2022-09-23T14:09:15.000Z,23.4
2022-09-23T14:10:24.000Z,23.4
2022-09-23T14:11:33.000Z,23.4
2022-09-23T14:12:43.000Z,23.4
2022-09-23T14:13:53.000Z,23.4
2022-09-23T14:15:03.000Z,23.4
2022-09-23T14:16:14.000Z,23.4
2022-09-23T14:17:24.000Z,23.4
2022-09-23T14:18:34.000Z,23.3
2022-09-23T14:19:44.000Z,23.3
2022-09-23T14:20:54.000Z,23.3
2022-09-23T14:22:04.000Z,23.3
2022-09-23T14:24:24.000Z,23.3
2022-09-23T14:25:35.000Z,23.3
2022-09-23T14:26:44.000Z,23.3
2022-09-23T14:27:54.000Z,23.3
2022-09-23T14:29:04.000Z,23.3
2022-09-23T14:30:14.000Z,23.3
2022-09-23T14:31:24.000Z,23.3
2022-09-23T14:32:34.000Z,23.3
2022-09-23T14:33:44.000Z,23.3
2022-09-23T14:34:54.000Z,23.3
2022-09-23T14:36:04.000Z,23.3
2022-09-23T14:37:13.000Z,23.3
2022-09-23T14:38:22.000Z,23.3
2022-09-23T14:39:31.000Z,23.3
2022-09-23T14:40:41.000Z,23.3
2022-09-23T14:41:51.000Z,23.3
2022-09-23T14:43:01.000Z,23.3
2022-09-23T14:44:11.000Z,23.3
2022-09-23T14:45:22.000Z,23.3
2022-09-23T14:46:31.000Z,23.3
2022-09-23T14:48:51.000Z,23.3
2022-09-23T14:50:01.000Z,23.3
2022-09-23T14:51:11.000Z,23.3
2022-09-23T14:52:21.000Z,23.3
2022-09-23T14:53:31.000Z,23.2
2022-09-23T14:54:42.000Z,23.2
2022-09-23T14:55:52.000Z,23.2
2022-09-23T14:57:02.000Z,23.2
2022-09-23T14:58:12.000Z,23.2
2022-09-23T14:59:22.000Z,23.2
2022-09-23T15:00:32.000Z,23.2
2022-09-23T15:01:41.000Z,23.2
2022-09-23T15:02:51.000Z,23.2
2022-09-23T15:04:01.000Z,23.2
2022-09-23T15:05:10.000Z,23.2
2022-09-23T15:06:20.000Z,23.2
2022-09-23T15:07:29.000Z,23.2
2022-09-23T15:08:38.000Z,23.2
2022-09-23T15:10:58.000Z,23.2
2022-09-23T15:12:08.000Z,23.2
2022-09-23T15:13:19.000Z,23.2
2022-09-23T15:14:29.000Z,23.2
2022-09-23T15:15:39.000Z,23.2
2022-09-23T15:16:49.000Z,23.2
2022-09-23T15:17:59.000Z,23.2
2022-09-23T15:19:09.000Z,23.2
2022-09-23T15:20:19.000Z,23.2
2022-09-23T15:21:29.000Z,23.2
2022-09-23T15:22:39.000Z,23.2
2022-09-23T15:23:49.000Z,23.2
2022-09-23T15:24:59.000Z,23.2
2022-09-23T15:26:09.000Z,23.2
2022-09-23T15:27:19.000Z,23.2
2022-09-23T15:28:29.000Z,23.2
2022-09-23T15:29:39.000Z,23.2
2022-09-23T15:30:49.000Z,23.2
2022-09-23T15:31:59.000Z,23.2
2022-09-23T15:33:09.000Z,23.2
2022-09-23T15:34:18.000Z,23.2
2022-09-23T15:35:27.000Z,23.2
2022-09-23T15:36:37.000Z,23.2
2022-09-23T15:37:46.000Z,23.2
2022-09-23T15:38:56.000Z,23.2
2022-09-23T15:40:06.000Z,23.2
2022-09-23T15:41:16.000Z,23.2
2022-09-23T15:42:27.000Z,23.2
2022-09-23T15:43:37.000Z,23.2
2022-09-23T15:44:47.000Z,23.2
2022-09-23T15:45:57.000Z,23.2
2022-09-23T15:47:07.000Z,23.2
2022-09-23T15:48:17.000Z,23.2
2022-09-23T15:49:27.000Z,23.2
2022-09-23T15:50:37.000Z,23.2
2022-09-23T15:51:47.000Z,23.2
2022-09-23T15:52:57.000Z,23.2
2022-09-23T15:54:07.000Z,23.2
2022-09-23T15:55:17.000Z,23.2
2022-09-23T15:56:27.000Z,23.2
2022-09-23T15:57:37.000Z,23.2
2022-09-23T15:58:47.000Z,23.1
2022-09-23T15:59:56.000Z,23.2
2022-09-23T16:01:05.000Z,23.1
2022-09-23T16:02:16.000Z,23.2
2022-09-23T16:03:26.000Z,23.1
2022-09-23T16:04:36.000Z,23.1
2022-09-23T16:05:46.000Z,23.2
2022-09-23T16:06:56.000Z,23.1
2022-09-23T16:08:06.000Z,23.1
2022-09-23T16:09:16.000Z,23.1
2022-09-23T16:10:26.000Z,23.1
2022-09-23T16:11:36.000Z,23.1
2022-09-23T16:12:47.000Z,23.1
2022-09-23T16:13:57.000Z,23.1
2022-09-23T16:15:07.000Z,23.1
2022-09-23T16:16:16.000Z,23.1